Copperhill, Tennessee
Current Conditions -  °F | °C
As of 1:35 AM on Friday 28 Nov 2014 (Local Time) from KRZR Reporting Station
Overcast Overcast  
Wind Chill: 24°   Ceiling: 3000
Heat Index: 30°   Visibility: 10mi
Dew Point: 19°   Wind: 6mph
Humidity: 64%   Direction: 10°N
Pressure: 30.4"   Gusts: NA
Location:  34.99°N, 84.37°W
Report Text: KRZR 280635Z AUTO 01005KT 10SM OVC030 M01/M07 A3040 RMK
Loading
Personal Weather Stations






























Interactive Weather Map New forecast layout! Learn more

10-Day Weather Forecast

Advertisements
Track Severe Weather on mobile